createdAt,value
2022-12-11T17:31:52.092Z,76.76
2022-12-11T17:34:18.622Z,76.63
2022-12-11T17:36:46.554Z,77.92
2022-12-11T17:39:13.069Z,77.30
2022-12-11T17:41:39.588Z,77.12
2022-12-11T17:44:06.125Z,77.82
2022-12-11T17:46:32.880Z,76.45
2022-12-11T17:49:01.826Z,76.54
2022-12-11T17:51:28.643Z,76.43
2022-12-11T17:53:56.147Z,76.95
2022-12-11T17:56:23.945Z,76.75
2022-12-11T17:58:50.680Z,77.25
2022-12-11T18:01:17.648Z,76.68
2022-12-11T18:03:44.408Z,77.16
2022-12-11T18:06:14.520Z,76.47
2022-12-11T18:08:41.599Z,76.75
2022-12-11T18:11:11.849Z,76.23
2022-12-11T18:13:39.318Z,75.79
2022-12-11T18:16:17.360Z,76.26
2022-12-11T18:18:46.199Z,76.57
2022-12-11T18:21:15.689Z,76.68
2022-12-11T18:23:42.561Z,77.46
2022-12-11T18:26:10.948Z,76.88
2022-12-11T18:28:37.621Z,76.14
2022-12-11T18:31:04.774Z,76.44
2022-12-11T18:33:32.204Z,76.34
2022-12-11T18:35:58.786Z,76.33
2022-12-11T18:38:25.477Z,77.25
2022-12-11T18:40:52.009Z,76.41
2022-12-11T18:43:18.534Z,76.86
2022-12-11T18:45:45.656Z,77.20
2022-12-11T18:48:13.225Z,77.21
2022-12-11T18:50:45.333Z,76.42
2022-12-11T18:53:12.000Z,75.96
2022-12-11T18:55:47.003Z,76.27
2022-12-11T18:58:16.364Z,76.53
2022-12-11T19:00:43.636Z,76.20
2022-12-11T19:03:11.802Z,76.13
2022-12-11T19:05:42.409Z,75.83
2022-12-11T19:08:10.310Z,76.24
2022-12-11T19:10:47.480Z,76.42
2022-12-11T19:13:14.300Z,76.52
2022-12-11T19:15:42.914Z,76.03
2022-12-11T19:18:10.438Z,76.27
2022-12-11T19:21:04.651Z,76.49
2022-12-11T19:23:25.629Z,77.14
2022-12-11T19:25:52.159Z,76.77
2022-12-11T19:28:18.950Z,76.65
2022-12-11T19:30:47.526Z,77.31
2022-12-11T19:33:14.277Z,77.44
2022-12-11T19:35:41.269Z,76.81
2022-12-11T19:38:08.456Z,76.64
2022-12-11T19:40:43.782Z,76.83
2022-12-11T19:43:11.026Z,76.93
2022-12-11T19:45:37.722Z,77.95
2022-12-11T19:48:04.618Z,77.68
2022-12-11T19:50:31.143Z,77.69
2022-12-11T19:52:57.665Z,78.08
2022-12-11T19:55:24.349Z,78.01
2022-12-11T19:57:50.854Z,77.95
2022-12-11T20:00:18.828Z,78.34
2022-12-11T20:02:45.392Z,77.95
2022-12-11T20:05:12.135Z,77.59
2022-12-11T20:07:38.913Z,77.65
2022-12-11T20:10:06.220Z,77.77
2022-12-11T20:12:32.747Z,76.98
2022-12-11T20:14:59.353Z,77.05
2022-12-11T20:17:25.903Z,77.41
2022-12-11T20:19:52.465Z,77.23
2022-12-11T20:22:19.365Z,77.52
2022-12-11T20:24:45.946Z,77.81
2022-12-11T20:27:12.568Z,78.24
2022-12-11T20:29:39.536Z,77.38
2022-12-11T20:32:07.344Z,77.81
2022-12-11T20:34:34.025Z,78.05
2022-12-11T20:37:00.592Z,78.24
2022-12-11T20:39:27.300Z,78.54
2022-12-11T20:41:53.828Z,78.38
2022-12-11T20:44:20.482Z,78.07
2022-12-11T20:46:47.107Z,78.31
2022-12-11T20:49:13.767Z,78.69
2022-12-11T20:51:40.866Z,78.76
2022-12-11T20:54:07.782Z,78.27
2022-12-11T20:56:34.257Z,78.25
2022-12-11T20:59:00.967Z,78.18
2022-12-11T21:01:31.652Z,77.97
2022-12-11T21:03:59.362Z,77.73
2022-12-11T21:06:34.693Z,78.01
2022-12-11T21:09:04.324Z,77.94
2022-12-11T21:11:30.928Z,77.88
2022-12-11T21:13:57.538Z,77.99
2022-12-11T21:16:24.563Z,78.34
2022-12-11T21:18:52.047Z,78.62
2022-12-11T21:21:18.719Z,78.49
2022-12-11T21:23:45.229Z,78.67
2022-12-11T21:26:12.807Z,78.67
2022-12-11T21:28:39.856Z,78.68
2022-12-11T21:31:13.058Z,78.56
2022-12-11T21:33:39.653Z,79.00
2022-12-11T21:36:07.371Z,79.58
2022-12-11T21:38:33.954Z,79.30
2022-12-11T21:41:13.655Z,79.68
2022-12-11T21:44:00.499Z,80.03
2022-12-11T21:46:28.935Z,80.05
2022-12-11T21:48:56.008Z,79.98
2022-12-11T21:51:35.693Z,79.50
2022-12-11T21:54:05.352Z,79.71
2022-12-11T21:56:32.079Z,79.72
2022-12-11T21:58:58.587Z,79.93
2022-12-11T22:01:29.177Z,80.72
2022-12-11T22:03:55.810Z,80.63
2022-12-11T22:06:22.632Z,80.32
2022-12-11T22:08:50.093Z,80.88
2022-12-11T22:11:22.989Z,80.81
2022-12-11T22:13:49.692Z,81.37
2022-12-11T22:16:16.305Z,81.32
2022-12-11T22:18:42.916Z,82.08
2022-12-11T22:21:09.570Z,81.85
2022-12-11T22:23:38.254Z,81.84
2022-12-11T22:26:05.940Z,81.71
2022-12-11T22:28:32.688Z,81.42
2022-12-11T22:30:59.479Z,82.02
2022-12-11T22:33:26.166Z,83.62
2022-12-11T22:36:00.298Z,83.04
2022-12-11T22:38:26.895Z,83.11
2022-12-11T22:40:54.821Z,83.01
2022-12-11T22:43:22.023Z,83.36
2022-12-11T22:45:48.746Z,83.36
2022-12-11T22:48:15.478Z,82.92
2022-12-11T22:50:42.924Z,83.24
2022-12-11T22:53:10.168Z,83.36
2022-12-11T22:55:39.899Z,81.69
2022-12-11T22:58:07.103Z,81.72
2022-12-11T23:00:34.252Z,81.36
2022-12-11T23:03:01.997Z,81.84
2022-12-11T23:05:29.265Z,82.65
2022-12-11T23:07:55.905Z,83.09
2022-12-11T23:10:22.673Z,83.38
2022-12-11T23:12:49.189Z,83.31
2022-12-11T23:15:15.856Z,83.66
2022-12-11T23:17:42.436Z,83.55
2022-12-11T23:20:09.458Z,84.60
2022-12-11T23:22:35.958Z,83.52
2022-12-11T23:25:02.581Z,83.18
2022-12-11T23:27:29.392Z,83.40
2022-12-11T23:29:56.112Z,83.36
2022-12-11T23:32:22.859Z,83.07
2022-12-11T23:34:49.365Z,82.73
2022-12-11T23:37:15.880Z,82.66
2022-12-11T23:39:42.386Z,82.24
2022-12-11T23:42:09.427Z,83.33
2022-12-11T23:44:35.942Z,83.05
2022-12-11T23:47:02.446Z,83.13
2022-12-11T23:49:28.957Z,82.91
2022-12-11T23:51:56.079Z,82.37
2022-12-11T23:54:22.664Z,82.13
2022-12-11T23:56:49.159Z,83.55
2022-12-11T23:59:15.772Z,83.15
